Time;durP1;ratioP1;P1;durP2;ratioP2;P2;SDS_P1;SDS_P2;PMS_P1;PMS_P2;Temp;Humidity;BMP_temperature;BMP_pressure;BME280_temperature;BME280_humidity;BME280_pressure;Samples;Min_cycle;Max_cycle;Signal;HPM_P1;HPM_P2
2021/12/25 00:00:53;;;;;;;11.50;6.38;;;14.40;70.30;;;;;;5093172;28;20077;-61
2021/12/25 00:03:18;;;;;;;12.38;7.07;;;14.40;70.50;;;;;;5093610;28;20373;-59
2021/12/25 00:05:48;;;;;;;12.20;6.03;;;14.30;71.00;;;;;;5093380;28;20020;-59
2021/12/25 00:08:14;;;;;;;9.82;4.97;;;14.30;73.20;;;;;;5093382;28;20093;-59
2021/12/25 00:10:39;;;;;;;9.48;4.60;;;14.00;92.10;;;;;;5093188;28;20469;-61
2021/12/25 00:13:05;;;;;;;8.93;4.20;;;13.90;99.90;;;;;;5093213;28;20020;-60
2021/12/25 00:15:31;;;;;;;4.60;2.83;;;13.30;99.90;;;;;;5093101;28;20043;-60
2021/12/25 00:17:57;;;;;;;10.18;6.22;;;13.30;99.90;;;;;;5093184;28;20092;-61
2021/12/25 00:20:23;;;;;;;7.90;4.75;;;13.40;99.90;;;;;;5093514;28;20035;-60
2021/12/25 00:22:49;;;;;;;7.20;4.05;;;13.60;99.90;;;;;;5093264;28;20385;-60
2021/12/25 00:25:14;;;;;;;5.40;3.70;;;13.80;99.90;;;;;;5093053;28;20030;-60
2021/12/25 00:28:03;;;;;;;6.88;3.80;;;13.90;99.90;;;;;;5093133;28;20020;-60
2021/12/25 00:30:37;;;;;;;7.22;3.90;;;14.00;96.20;;;;;;5092818;28;20111;-60
2021/12/25 00:33:53;;;;;;;5.72;2.92;;;14.00;93.20;;;;;;5093043;28;20051;-60
2021/12/25 00:35:49;;;;;;;5.90;3.08;;;14.00;91.20;;;;;;5095666;28;20036;-60
2021/12/25 00:38:14;;;;;;;4.40;2.78;;;14.00;90.50;;;;;;5096560;28;20488;-61
2021/12/25 00:40:40;;;;;;;5.00;3.33;;;14.10;90.00;;;;;;5096980;28;20030;-60
2021/12/25 00:43:06;;;;;;;6.55;4.10;;;14.10;89.50;;;;;;5096829;28;20020;-61
2021/12/25 00:45:32;;;;;;;6.95;4.88;;;14.20;91.40;;;;;;5096674;28;20035;-59
2021/12/25 00:47:57;;;;;;;7.80;3.85;;;14.20;90.90;;;;;;5096752;28;20571;-60
2021/12/25 00:50:23;;;;;;;9.27;5.30;;;14.20;91.00;;;;;;5096674;28;20043;-60
2021/12/25 00:52:49;;;;;;;9.77;6.10;;;14.10;90.90;;;;;;5096862;28;20489;-59
2021/12/25 00:55:14;;;;;;;9.02;5.75;;;14.10;90.90;;;;;;5096361;28;20490;-59
2021/12/25 00:57:40;;;;;;;7.63;4.90;;;14.10;90.80;;;;;;5096907;28;20024;-60
2021/12/25 01:00:10;;;;;;;5.20;3.00;;;14.00;90.00;;;;;;5096334;28;20469;-61
2021/12/25 01:02:38;;;;;;;9.75;4.90;;;14.10;89.40;;;;;;5096653;28;20420;-61
2021/12/25 01:05:05;;;;;;;5.43;3.72;;;14.10;89.00;;;;;;5096518;28;20024;-60
2021/12/25 01:07:31;;;;;;;7.20;3.78;;;14.10;88.40;;;;;;5096438;28;20048;-61
2021/12/25 01:09:56;;;;;;;7.95;4.35;;;14.10;87.70;;;;;;5096404;28;20439;-60
2021/12/25 01:12:22;;;;;;;6.22;2.88;;;14.20;87.20;;;;;;5096363;28;20104;-59
2021/12/25 01:14:55;;;;;;;7.75;4.18;;;14.20;86.30;;;;;;5095961;28;20024;-60
2021/12/25 01:29:05;;;;;;;6.03;4.00;;;14.40;85.20;;;;;;5095909;28;20012;-60
2021/12/25 01:36:07;;;;;;;9.27;5.10;;;14.50;84.30;;;;;;5095869;28;20028;-61
2021/12/25 01:38:48;;;;;;;10.40;5.82;;;14.50;84.50;;;;;;5095680;28;20107;-60
2021/12/25 01:49:07;;;;;;;9.82;4.97;;;14.40;86.60;;;;;;5095358;28;20074;-59
2021/12/25 01:51:32;;;;;;;13.15;6.57;;;14.40;87.20;;;;;;5095778;28;20358;-59
2021/12/25 01:53:58;;;;;;;10.65;5.43;;;14.40;87.20;;;;;;5095373;28;20051;-60
2021/12/25 01:56:24;;;;;;;8.88;5.53;;;14.30;87.40;;;;;;5095324;28;20032;-61
2021/12/25 01:58:51;;;;;;;7.43;4.85;;;14.40;87.50;;;;;;5095404;28;20065;-60
2021/12/25 02:01:18;;;;;;;10.13;5.03;;;14.30;87.70;;;;;;5095707;28;20028;-60
2021/12/25 02:03:44;;;;;;;8.73;5.35;;;14.40;88.60;;;;;;5095388;28;20568;-60
2021/12/25 02:06:11;;;;;;;17.33;8.75;;;14.30;88.60;;;;;;5095463;28;20063;-60
2021/12/25 02:08:39;;;;;;;24.55;12.38;;;14.30;90.50;;;;;;5095302;28;20427;-59
2021/12/25 02:11:06;;;;;;;19.50;11.48;;;14.20;91.50;;;;;;5095016;28;20024;-60
2021/12/25 02:13:31;;;;;;;19.38;10.88;;;13.90;97.50;;;;;;5095033;28;20024;-60
2021/12/25 02:15:59;;;;;;;18.02;9.68;;;13.80;96.90;;;;;;5095326;28;20154;-58
2021/12/25 02:18:32;;;;;;;21.58;9.23;;;13.80;96.00;;;;;;5095030;28;20035;-61
2021/12/25 02:23:24;;;;;;;22.25;10.75;;;13.30;97.80;;;;;;5095374;28;20028;-60
2021/12/25 02:25:54;;;;;;;19.58;10.98;;;13.40;97.30;;;;;;5094676;28;20024;-60
2021/12/25 02:28:21;;;;;;;14.82;8.93;;;13.50;98.20;;;;;;5094772;28;20470;-61
2021/12/25 02:30:49;;;;;;;14.88;9.90;;;13.50;97.20;;;;;;5094981;28;20069;-61
2021/12/25 02:33:16;;;;;;;16.00;8.30;;;13.60;96.80;;;;;;5094843;28;20034;-61
2021/12/25 02:35:43;;;;;;;13.50;7.30;;;13.60;96.30;;;;;;5094617;28;20393;-61
2021/12/25 02:38:09;;;;;;;9.32;5.82;;;13.70;96.30;;;;;;5093471;28;20394;-59
2021/12/25 02:40:35;;;;;;;12.63;6.30;;;13.80;96.30;;;;;;5094792;28;20024;-60
2021/12/25 02:43:00;;;;;;;8.95;5.53;;;13.80;96.10;;;;;;5094457;28;20020;-59
2021/12/25 02:45:26;;;;;;;10.07;5.53;;;13.70;95.80;;;;;;5094565;28;20106;-61
2021/12/25 02:47:55;;;;;;;9.02;5.30;;;13.80;95.20;;;;;;5094479;28;20454;-61
2021/12/25 02:50:30;;;;;;;11.32;6.97;;;13.80;95.80;;;;;;5094409;28;20034;-60
2021/12/25 02:52:59;;;;;;;25.85;13.60;;;13.80;96.60;;;;;;5094543;28;20042;-60
2021/12/25 02:55:26;;;;;;;26.85;13.23;;;13.50;99.90;;;;;;5093983;28;20044;-60
2021/12/25 02:57:52;;;;;;;27.77;13.10;;;13.10;99.90;;;;;;5094345;28;20020;-61
2021/12/25 03:00:31;;;;;;;23.48;11.80;;;12.80;99.90;;;;;;5093564;28;20117;-61
2021/12/25 03:03:00;;;;;;;31.33;16.50;;;12.70;99.90;;;;;;5094509;28;20047;-61
2021/12/25 03:05:26;;;;;;;35.35;17.40;;;12.70;99.90;;;;;;5094104;28;20428;-59
2021/12/25 03:07:52;;;;;;;27.85;14.63;;;12.60;99.90;;;;;;5094088;28;20032;-60
2021/12/25 03:10:19;;;;;;;31.58;16.85;;;12.50;99.90;;;;;;5093912;28;20027;-60
2021/12/25 03:12:52;;;;;;;49.03;24.35;;;12.50;99.90;;;;;;5094020;28;20027;-60
2021/12/25 03:15:29;;;;;;;62.72;32.42;;;12.50;99.90;;;;;;5093921;28;20040;-60
2021/12/25 03:17:57;;;;;;;43.42;23.00;;;12.20;99.90;;;;;;5093837;28;20024;-60
2021/12/25 03:20:24;;;;;;;46.50;23.10;;;12.20;99.90;;;;;;5093934;28;20027;-61
2021/12/25 03:22:50;;;;;;;39.17;20.98;;;12.20;99.90;;;;;;5094178;28;20103;-59
2021/12/25 03:25:17;;;;;;;34.15;18.80;;;12.30;99.90;;;;;;5093571;28;20024;-59
2021/12/25 03:27:45;;;;;;;52.67;30.85;;;12.40;99.90;;;;;;5093877;28;20016;-60
2021/12/25 03:30:16;;;;;;;29.45;19.08;;;12.40;99.90;;;;;;5093781;28;20108;-60
2021/12/25 03:32:43;;;;;;;27.77;17.55;;;12.20;99.90;;;;;;5093608;28;20028;-60
2021/12/25 03:35:09;;;;;;;24.52;15.65;;;12.10;99.90;;;;;;5093629;28;20028;-60
2021/12/25 03:37:35;;;;;;;21.75;12.07;;;12.20;99.90;;;;;;5093440;28;20099;-59
2021/12/25 03:40:01;;;;;;;18.98;11.57;;;12.10;99.90;;;;;;5093459;28;20028;-60
2021/12/25 03:42:27;;;;;;;16.50;10.32;;;12.10;99.90;;;;;;5093614;28;20012;-61
2021/12/25 03:44:52;;;;;;;15.23;9.02;;;12.20;99.90;;;;;;5093624;28;20028;-61
2021/12/25 03:47:38;;;;;;;16.77;9.48;;;12.30;99.90;;;;;;5093460;28;20493;-59
2021/12/25 03:58:13;;;;;;;20.33;11.27;;;12.10;99.90;;;;;;5093835;28;20031;-61
2021/12/25 04:00:40;;;;;;;28.60;16.50;;;12.20;99.90;;;;;;5093676;28;20028;-60
2021/12/25 04:03:09;;;;;;;57.72;27.27;;;12.20;99.90;;;;;;5093603;28;20035;-60
2021/12/25 04:05:39;;;;;;;57.63;28.08;;;11.90;99.90;;;;;;5093585;28;20052;-60
2021/12/25 04:08:10;;;;;;;98.03;41.42;;;11.70;99.90;;;;;;5093386;28;20028;-60
2021/12/25 04:10:39;;;;;;;86.13;37.17;;;11.70;99.90;;;;;;5094036;28;20020;-60
2021/12/25 04:13:10;;;;;;;105.75;49.58;;;11.60;99.90;;;;;;5097428;28;20466;-60
2021/12/25 04:15:36;;;;;;;81.90;39.88;;;11.70;99.90;;;;;;5097261;28;20031;-60
2021/12/25 04:18:02;;;;;;;113.55;54.58;;;11.70;99.90;;;;;;5097666;28;20040;-61
2021/12/25 04:20:29;;;;;;;85.47;42.75;;;11.80;99.90;;;;;;5097298;28;20059;-59
2021/12/25 04:23:02;;;;;;;105.35;49.95;;;11.90;99.90;;;;;;5097203;28;20061;-61
2021/12/25 04:25:31;;;;;;;121.80;61.58;;;11.90;99.90;;;;;;5097402;28;20118;-60
2021/12/25 04:28:05;;;;;;;99.50;49.53;;;11.80;99.90;;;;;;5097234;28;20054;-61
2021/12/25 05:05:23;;;;;;;28.30;17.73;;;12.00;99.90;;;;;;5096462;28;20080;-60
2021/12/25 05:07:49;;;;;;;29.50;17.35;;;12.00;99.90;;;;;;5096551;28;20042;-59
2021/12/25 05:10:15;;;;;;;25.85;16.52;;;12.00;99.90;;;;;;5096362;28;20052;-60
2021/12/25 05:12:41;;;;;;;24.73;16.40;;;12.00;99.90;;;;;;5096226;28;20035;-60
2021/12/25 05:15:07;;;;;;;24.58;14.82;;;12.00;99.90;;;;;;5096368;28;20028;-61
2021/12/25 05:17:33;;;;;;;22.88;14.82;;;12.00;99.90;;;;;;5096622;28;20110;-60
2021/12/25 05:19:59;;;;;;;24.15;16.10;;;12.00;99.90;;;;;;5096011;28;20479;-59
2021/12/25 05:22:25;;;;;;;25.73;16.17;;;12.00;99.90;;;;;;5095606;28;20466;-60
2021/12/25 05:24:52;;;;;;;22.88;15.20;;;11.90;99.90;;;;;;5096432;28;20103;-60
2021/12/25 05:27:18;;;;;;;21.25;14.85;;;11.80;99.90;;;;;;5096011;28;20027;-61
2021/12/25 05:29:46;;;;;;;22.52;14.05;;;11.80;99.90;;;;;;5096325;28;20016;-60
2021/12/25 05:32:14;;;;;;;25.63;16.63;;;11.80;99.90;;;;;;5095942;28;20532;-60
2021/12/25 05:34:40;;;;;;;20.63;14.13;;;11.90;99.90;;;;;;5095587;28;20074;-61
2021/12/25 05:37:07;;;;;;;27.75;16.52;;;11.80;99.90;;;;;;5095885;28;20016;-60
2021/12/25 05:39:32;;;;;;;25.35;16.92;;;11.80;99.90;;;;;;5096107;28;20031;-60
2021/12/25 05:41:59;;;;;;;20.30;14.10;;;11.80;99.90;;;;;;5095715;28;20385;-60
2021/12/25 05:44:25;;;;;;;24.48;15.93;;;11.80;99.90;;;;;;5095790;28;20035;-60
2021/12/25 05:46:51;;;;;;;24.02;15.95;;;11.70;99.90;;;;;;5095764;28;20027;-60
2021/12/25 05:49:17;;;;;;;33.33;22.08;;;11.80;99.90;;;;;;5095465;28;20024;-59
2021/12/25 05:51:43;;;;;;;28.05;18.20;;;11.60;99.90;;;;;;5095615;28;20020;-61
2021/12/25 05:54:09;;;;;;;32.60;20.73;;;11.60;99.90;;;;;;5095486;28;20494;-59
2021/12/25 05:56:35;;;;;;;28.67;18.05;;;11.60;99.90;;;;;;5095833;28;20450;-60
2021/12/25 05:59:01;;;;;;;26.23;17.95;;;11.60;99.90;;;;;;5095722;28;20027;-60
2021/12/25 06:01:27;;;;;;;40.08;24.35;;;11.60;99.90;;;;;;5095480;28;20039;-60
2021/12/25 06:03:53;;;;;;;47.10;28.17;;;11.50;99.90;;;;;;5095235;28;20148;-60
2021/12/25 06:06:19;;;;;;;95.80;46.00;;;11.40;99.90;;;;;;5095276;28;20455;-61
2021/12/25 06:08:45;;;;;;;79.60;40.13;;;11.40;99.90;;;;;;5095346;28;20090;-60
2021/12/25 06:11:11;;;;;;;59.00;31.35;;;11.50;99.90;;;;;;5095503;28;20187;-60
2021/12/25 06:13:44;;;;;;;57.25;29.88;;;11.60;99.90;;;;;;5095107;28;20020;-61
2021/12/25 06:16:10;;;;;;;48.10;27.37;;;11.60;99.90;;;;;;5095217;28;20024;-61
2021/12/25 06:18:35;;;;;;;41.22;23.80;;;11.70;99.90;;;;;;5094701;28;20028;-61
2021/12/25 06:21:02;;;;;;;37.00;21.27;;;11.70;99.90;;;;;;5095005;28;20025;-60
2021/12/25 06:23:29;;;;;;;30.92;18.98;;;11.70;99.90;;;;;;5095274;28;20012;-61
2021/12/25 06:25:55;;;;;;;28.30;17.45;;;11.70;99.90;;;;;;5095196;28;20432;-61
2021/12/25 06:28:21;;;;;;;25.65;16.25;;;11.60;99.90;;;;;;5094806;28;20100;-60
2021/12/25 06:30:49;;;;;;;78.28;39.70;;;11.60;99.90;;;;;;5094889;28;20095;-59
2021/12/25 06:33:15;;;;;;;42.28;25.30;;;11.60;99.90;;;;;;5094593;28;20024;-61
2021/12/25 06:35:41;;;;;;;48.35;26.85;;;11.60;99.90;;;;;;5093619;28;20031;-60
2021/12/25 06:38:06;;;;;;;41.78;25.05;;;11.50;99.90;;;;;;5095003;28;20032;-60
2021/12/25 06:40:32;;;;;;;38.65;24.08;;;11.60;99.90;;;;;;5094972;28;20378;-60
2021/12/25 06:42:58;;;;;;;32.42;20.35;;;11.60;99.90;;;;;;5094595;28;20073;-59
2021/12/25 06:45:24;;;;;;;32.08;19.10;;;11.60;99.90;;;;;;5094571;28;20028;-59
2021/12/25 06:47:50;;;;;;;31.50;19.05;;;11.70;99.90;;;;;;5094477;28;20031;-60
2021/12/25 06:50:16;;;;;;;38.38;21.13;;;11.70;99.90;;;;;;5094387;28;20019;-60
2021/12/25 06:52:45;;;;;;;40.78;25.38;;;11.60;99.90;;;;;;5094723;28;20493;-59
2021/12/25 06:55:12;;;;;;;26.40;17.55;;;11.50;99.90;;;;;;5094229;28;20032;-61
2021/12/25 06:57:45;;;;;;;26.92;17.55;;;11.40;99.90;;;;;;5094359;28;20024;-59
2021/12/25 07:00:12;;;;;;;34.53;21.35;;;11.40;99.90;;;;;;5094301;28;20032;-61
2021/12/25 07:02:37;;;;;;;36.40;23.25;;;11.50;99.90;;;;;;5094099;28;20024;-61
2021/12/25 07:05:04;;;;;;;47.30;26.92;;;11.30;99.90;;;;;;5094081;28;20024;-60
2021/12/25 07:07:30;;;;;;;53.58;32.55;;;11.30;99.90;;;;;;5094122;28;20024;-61
2021/12/25 07:09:56;;;;;;;46.42;30.88;;;11.40;99.90;;;;;;5094193;28;20466;-61
2021/12/25 07:12:24;;;;;;;52.45;32.50;;;11.50;99.90;;;;;;5094096;28;20081;-60
2021/12/25 07:14:49;;;;;;;53.03;30.83;;;11.50;99.90;;;;;;5094120;28;20036;-60
2021/12/25 07:17:15;;;;;;;55.25;34.38;;;11.60;99.90;;;;;;5094072;28;20020;-60
2021/12/25 07:19:41;;;;;;;44.22;28.30;;;11.60;99.90;;;;;;5094254;28;20462;-61
2021/12/25 07:22:07;;;;;;;48.88;32.90;;;11.60;99.90;;;;;;5094068;28;20355;-61
2021/12/25 07:24:33;;;;;;;43.88;27.42;;;11.60;99.90;;;;;;5094156;28;20024;-59
2021/12/25 07:27:03;;;;;;;50.00;31.65;;;11.60;99.90;;;;;;5093891;28;20428;-60
2021/12/25 07:29:29;;;;;;;44.40;29.80;;;11.60;99.90;;;;;;5093606;28;20027;-60
2021/12/25 07:31:55;;;;;;;47.88;31.83;;;11.70;99.90;;;;;;5094029;28;20358;-59
2021/12/25 07:34:21;;;;;;;62.28;36.90;;;11.70;99.90;;;;;;5093642;28;20027;-60
2021/12/25 07:36:46;;;;;;;112.57;66.40;;;11.80;99.90;;;;;;5093571;28;20024;-60
2021/12/25 07:39:12;;;;;;;77.90;48.88;;;11.80;99.90;;;;;;5093659;28;20608;-60
2021/12/25 07:41:38;;;;;;;116.57;67.70;;;11.70;99.90;;;;;;5093608;28;20508;-60
2021/12/25 07:44:04;;;;;;;124.85;74.72;;;11.80;99.90;;;;;;5093253;28;20020;-60
2021/12/25 07:46:30;;;;;;;79.85;49.85;;;11.90;99.90;;;;;;5093542;28;20081;-61
2021/12/25 07:48:57;;;;;;;60.03;35.72;;;12.20;99.90;;;;;;5093478;28;20428;-59
2021/12/25 07:51:22;;;;;;;58.38;34.67;;;12.50;99.90;;;;;;5093411;28;20020;-59
2021/12/25 07:53:49;;;;;;;62.47;35.75;;;12.80;99.90;;;;;;5093158;28;20097;-60
2021/12/25 07:56:16;;;;;;;58.78;36.08;;;13.10;99.90;;;;;;5093597;28;20051;-61
2021/12/25 07:58:42;;;;;;;61.20;36.13;;;13.30;99.60;;;;;;5093145;28;20073;-60
2021/12/25 08:01:09;;;;;;;57.10;33.08;;;13.40;98.60;;;;;;5093779;28;20024;-60
2021/12/25 08:03:35;;;;;;;50.80;29.40;;;13.60;98.20;;;;;;5093394;28;20432;-60
2021/12/25 08:06:02;;;;;;;43.90;24.52;;;13.60;97.20;;;;;;5093175;28;20021;-59
2021/12/25 08:08:28;;;;;;;20.33;11.50;;;13.70;96.80;;;;;;5093245;28;20496;-60
2021/12/25 08:10:55;;;;;;;12.73;7.18;;;13.80;95.60;;;;;;5093344;28;20099;-60
2021/12/25 08:13:22;;;;;;;11.40;7.32;;;13.90;95.10;;;;;;5093025;28;20415;-58
2021/12/25 08:15:47;;;;;;;13.25;7.80;;;14.00;94.10;;;;;;5093126;28;20035;-60
2021/12/25 08:18:14;;;;;;;8.57;6.28;;;14.10;93.80;;;;;;5093223;28;20028;-60
2021/12/25 08:20:40;;;;;;;7.25;5.22;;;14.30;93.40;;;;;;5093617;28;20020;-59
2021/12/25 08:23:07;;;;;;;11.82;6.43;;;14.40;93.00;;;;;;5093135;28;20478;-60
2021/12/25 08:25:33;;;;;;;9.10;6.07;;;14.40;91.80;;;;;;5093131;28;20024;-60
2021/12/25 08:27:59;;;;;;;10.13;6.15;;;14.50;91.70;;;;;;5093043;28;20024;-60
2021/12/25 08:30:28;;;;;;;5.47;4.15;;;14.60;91.80;;;;;;5093064;28;20043;-60
2021/12/25 08:32:57;;;;;;;11.27;7.55;;;14.60;91.50;;;;;;5093265;28;20028;-60
2021/12/25 08:35:24;;;;;;;9.57;6.20;;;14.70;91.40;;;;;;5092985;28;20028;-60
2021/12/25 08:37:50;;;;;;;14.07;9.13;;;14.70;91.20;;;;;;5093053;28;20024;-60
2021/12/25 08:40:16;;;;;;;24.17;14.10;;;14.80;91.30;;;;;;5093016;28;20028;-59
2021/12/25 08:42:51;;;;;;;26.23;15.93;;;14.70;91.00;;;;;;5092921;28;20109;-61
2021/12/25 08:48:03;;;;;;;31.25;18.67;;;14.70;91.00;;;;;;5092993;28;20028;-60
2021/12/25 08:50:31;;;;;;;32.53;20.50;;;14.80;90.80;;;;;;5092835;28;20624;-59
2021/12/25 08:52:56;;;;;;;45.20;26.50;;;14.80;90.60;;;;;;5092896;28;20066;-60
2021/12/25 08:55:22;;;;;;;32.95;20.25;;;14.80;90.40;;;;;;5092548;28;20052;-60
2021/12/25 08:57:49;;;;;;;17.50;11.15;;;14.80;90.30;;;;;;5093598;28;20089;-60
2021/12/25 09:00:15;;;;;;;26.85;17.15;;;14.80;90.00;;;;;;5096537;28;20028;-61
2021/12/25 09:02:41;;;;;;;18.85;12.38;;;14.80;90.40;;;;;;5096561;28;20020;-60
2021/12/25 09:05:07;;;;;;;18.98;12.07;;;14.90;89.80;;;;;;5096493;28;20020;-60
2021/12/25 09:07:33;;;;;;;17.17;11.07;;;15.00;89.60;;;;;;5096610;28;20024;-59
2021/12/25 09:09:58;;;;;;;34.03;20.85;;;15.00;88.30;;;;;;5096538;28;20016;-59
2021/12/25 09:12:25;;;;;;;43.65;26.67;;;15.10;87.50;;;;;;5096390;28;20024;-60
2021/12/25 09:14:51;;;;;;;22.25;13.43;;;15.30;87.00;;;;;;5096245;28;20028;-60
2021/12/25 09:17:17;;;;;;;19.20;11.57;;;15.30;84.80;;;;;;5096326;28;20027;-60
2021/12/25 09:19:43;;;;;;;16.23;10.68;;;15.40;83.20;;;;;;5096398;28;20377;-60
2021/12/25 09:22:12;;;;;;;22.40;13.63;;;15.50;83.50;;;;;;5096505;28;20032;-59
2021/12/25 09:24:39;;;;;;;28.02;16.17;;;15.50;83.90;;;;;;5096142;28;20488;-60
2021/12/25 09:27:06;;;;;;;23.23;13.55;;;15.40;82.90;;;;;;5096232;28;20413;-60
2021/12/25 09:29:32;;;;;;;14.23;8.30;;;15.50;83.00;;;;;;5096379;28;20028;-60
2021/12/25 09:31:58;;;;;;;31.45;18.05;;;15.40;81.90;;;;;;5096214;28;20496;-59
2021/12/25 09:34:24;;;;;;;28.13;16.13;;;15.40;82.00;;;;;;5096135;28;20020;-60
2021/12/25 09:36:49;;;;;;;34.72;20.08;;;15.40;82.30;;;;;;5096188;28;20427;-61
2021/12/25 09:39:16;;;;;;;45.13;26.45;;;15.40;82.80;;;;;;5095935;28;20378;-61
2021/12/25 09:41:41;;;;;;;42.90;23.83;;;15.40;83.00;;;;;;5095615;28;20027;-60
2021/12/25 09:44:07;;;;;;;43.95;26.27;;;15.40;83.30;;;;;;5095696;28;20026;-60
2021/12/25 09:46:33;;;;;;;52.60;31.55;;;15.40;82.20;;;;;;5096024;28;20419;-60
2021/12/25 09:49:00;;;;;;;52.38;30.33;;;15.40;83.20;;;;;;5096019;28;20051;-60
2021/12/25 09:51:26;;;;;;;38.05;22.60;;;15.40;83.00;;;;;;5095590;28;20027;-61
2021/12/25 09:54:14;;;;;;;32.92;21.17;;;15.40;82.50;;;;;;5095548;28;20127;-61
2021/12/25 09:56:41;;;;;;;35.92;22.00;;;15.40;82.60;;;;;;5095542;28;20040;-61
2021/12/25 09:59:10;;;;;;;40.47;24.45;;;15.30;83.40;;;;;;5095513;28;20055;-61
2021/12/25 10:01:36;;;;;;;84.15;46.35;;;15.30;83.60;;;;;;5095439;28;20107;-60
2021/12/25 10:04:03;;;;;;;47.28;30.58;;;15.30;84.30;;;;;;5095356;28;20063;-60
2021/12/25 10:06:36;;;;;;;54.47;33.97;;;15.30;84.10;;;;;;5095605;28;20024;-60
2021/12/25 10:09:20;;;;;;;56.08;34.50;;;15.30;85.30;;;;;;5094967;28;20024;-61
2021/12/25 10:12:08;;;;;;;48.10;29.08;;;15.30;84.50;;;;;;5095561;28;20028;-60
2021/12/25 10:14:35;;;;;;;55.70;32.75;;;15.30;84.00;;;;;;5095359;28;20078;-60
2021/12/25 10:17:16;;;;;;;52.90;31.27;;;15.40;84.10;;;;;;5095074;28;20016;-60
2021/12/25 10:19:42;;;;;;;51.25;30.98;;;15.40;83.70;;;;;;5095113;28;20024;-60
2021/12/25 10:22:10;;;;;;;38.95;25.13;;;15.50;83.90;;;;;;5094979;28;20496;-60
2021/12/25 10:24:48;;;;;;;36.75;22.35;;;15.60;83.10;;;;;;5095244;28;20028;-61
2021/12/25 10:27:22;;;;;;;38.67;23.27;;;15.60;82.60;;;;;;5094892;28;20405;-60
2021/12/25 10:29:58;;;;;;;35.90;24.42;;;15.60;79.80;;;;;;5095246;28;20016;-60
2021/12/25 10:32:25;;;;;;;38.72;23.38;;;15.60;80.10;;;;;;5095086;28;20028;-59
2021/12/25 10:34:53;;;;;;;18.45;11.10;;;15.60;78.60;;;;;;5094633;28;20066;-61
2021/12/25 10:37:20;;;;;;;33.67;20.20;;;15.60;77.00;;;;;;5095021;28;20421;-60
2021/12/25 10:39:47;;;;;;;28.45;18.25;;;15.60;77.30;;;;;;5094811;28;20024;-59
2021/12/25 10:42:20;;;;;;;36.92;22.77;;;15.50;78.00;;;;;;5094703;28;20531;-61
2021/12/25 10:44:55;;;;;;;35.47;20.60;;;15.60;78.10;;;;;;5094657;28;20020;-59
2021/12/25 10:47:26;;;;;;;26.52;16.95;;;15.60;76.70;;;;;;5094554;28;20362;-61
2021/12/25 10:50:11;;;;;;;44.28;21.30;;;15.70;76.50;;;;;;5094664;28;20020;-60
2021/12/25 10:52:42;;;;;;;19.98;12.10;;;15.70;75.20;;;;;;5094488;28;20096;-60
2021/12/25 10:55:23;;;;;;;18.85;11.00;;;15.80;75.50;;;;;;5094178;28;20051;-59
2021/12/25 10:57:57;;;;;;;17.30;10.07;;;16.00;74.80;;;;;;5094318;28;20386;-60
2021/12/25 11:00:32;;;;;;;17.55;11.88;;;16.10;74.90;;;;;;5094455;28;20020;-60
2021/12/25 11:03:02;;;;;;;27.33;16.10;;;16.30;75.00;;;;;;5094512;28;20427;-61
2021/12/25 11:05:35;;;;;;;24.98;15.68;;;16.30;72.90;;;;;;5094557;28;20036;-60
2021/12/25 11:08:08;;;;;;;22.05;12.63;;;16.40;72.50;;;;;;5094363;28;20467;-61
2021/12/25 11:10:53;;;;;;;18.23;12.82;;;16.40;70.60;;;;;;5094160;28;20159;-60
2021/12/25 11:13:27;;;;;;;16.45;11.25;;;16.40;71.40;;;;;;5094161;28;20112;-60
2021/12/25 11:16:03;;;;;;;12.85;8.82;;;16.50;68.20;;;;;;5094106;28;20103;-60
2021/12/25 11:18:30;;;;;;;14.20;9.48;;;16.70;70.00;;;;;;5094128;28;20020;-61
2021/12/25 11:20:56;;;;;;;20.40;11.95;;;16.60;70.00;;;;;;5093359;28;20027;-60
2021/12/25 11:23:22;;;;;;;9.55;6.65;;;16.50;69.80;;;;;;5093797;28;20485;-60
2021/12/25 11:25:48;;;;;;;7.90;5.10;;;16.60;69.00;;;;;;5094208;28;20142;-60
2021/12/25 11:28:18;;;;;;;13.32;7.78;;;16.60;68.70;;;;;;5093693;28;20020;-60
2021/12/25 11:30:50;;;;;;;8.10;4.90;;;16.60;67.70;;;;;;5093859;28;20377;-61
2021/12/25 11:33:16;;;;;;;13.05;8.45;;;16.60;66.90;;;;;;5094010;28;20024;-61
2021/12/25 11:35:42;;;;;;;6.03;3.35;;;16.60;66.90;;;;;;5093807;28;20058;-61
2021/12/25 11:38:09;;;;;;;7.32;4.55;;;16.50;67.20;;;;;;5093471;28;20477;-60
2021/12/25 11:40:41;;;;;;;10.70;6.75;;;16.50;67.90;;;;;;5093937;28;20024;-60
2021/12/25 11:43:07;;;;;;;11.90;7.00;;;16.50;67.70;;;;;;5093529;28;20050;-60
2021/12/25 11:45:37;;;;;;;7.15;4.85;;;16.60;67.30;;;;;;5093841;28;20118;-61
2021/12/25 11:48:17;;;;;;;11.60;7.18;;;16.60;67.10;;;;;;5093602;28;20381;-60
2021/12/25 11:50:51;;;;;;;21.17;12.55;;;16.60;66.40;;;;;;5093498;28;20047;-60
2021/12/25 11:53:53;;;;;;;16.70;10.00;;;16.60;67.30;;;;;;5093604;28;20032;-59
2021/12/25 11:56:36;;;;;;;15.20;9.65;;;16.70;67.60;;;;;;5093711;28;20052;-61
2021/12/25 11:59:16;;;;;;;13.15;8.40;;;16.70;68.40;;;;;;5093789;28;20036;-62
2021/12/25 12:01:49;;;;;;;12.10;7.20;;;16.80;68.80;;;;;;5093678;28;20028;-60
2021/12/25 12:04:24;;;;;;;7.80;4.97;;;16.80;67.80;;;;;;5093339;28;20074;-61
2021/12/25 12:06:58;;;;;;;15.90;9.75;;;16.90;68.00;;;;;;5093200;28;20024;-61
2021/12/25 12:09:46;;;;;;;14.05;8.13;;;16.90;67.10;;;;;;5093224;28;20095;-61
2021/12/25 12:12:16;;;;;;;17.10;9.65;;;16.90;68.20;;;;;;5093247;28;20031;-60
2021/12/25 12:14:42;;;;;;;16.88;9.80;;;16.80;68.20;;;;;;5093117;28;20115;-60
2021/12/25 12:17:17;;;;;;;19.92;12.35;;;16.80;68.30;;;;;;5093248;28;20567;-59
2021/12/25 12:19:45;;;;;;;17.70;10.77;;;16.60;67.70;;;;;;5092774;28;20058;-61
2021/12/25 12:25:46;;;;;;;14.73;9.38;;;16.70;67.20;;;;;;5093202;28;20043;-61
2021/12/25 12:28:02;;;;;;;17.38;9.88;;;16.80;68.40;;;;;;5092935;28;20035;-61
2021/12/25 12:30:31;;;;;;;13.85;9.48;;;16.70;68.00;;;;;;5093079;28;20107;-60
2021/12/25 12:33:02;;;;;;;13.23;8.23;;;16.80;68.30;;;;;;5096076;28;20028;-60
2021/12/25 12:35:36;;;;;;;21.15;12.00;;;16.80;67.60;;;;;;5096880;28;20039;-59
2021/12/25 12:38:37;;;;;;;18.38;12.18;;;16.80;65.90;;;;;;5097379;28;20459;-60
2021/12/25 12:41:11;;;;;;;16.30;9.85;;;16.80;66.20;;;;;;5096935;28;20081;-60
2021/12/25 12:43:57;;;;;;;17.63;9.70;;;16.90;65.80;;;;;;5097269;28;20382;-60
2021/12/25 12:46:55;;;;;;;15.20;8.73;;;16.90;64.80;;;;;;5097185;28;20437;-60
2021/12/25 12:49:28;;;;;;;12.32;7.82;;;16.70;63.50;;;;;;5096250;28;20032;-61
2021/12/25 12:52:25;;;;;;;11.40;7.50;;;16.70;64.30;;;;;;5096804;28;20024;-60
2021/12/25 12:55:00;;;;;;;13.38;9.02;;;16.80;64.20;;;;;;5096450;28;20371;-61
2021/12/25 12:57:32;;;;;;;20.63;12.43;;;16.70;64.40;;;;;;5096703;28;20021;-59
2021/12/25 12:59:59;;;;;;;30.10;17.40;;;16.70;64.80;;;;;;5096837;28;20355;-60
2021/12/25 13:02:28;;;;;;;24.83;15.35;;;16.70;64.30;;;;;;5096834;28;20024;-60
2021/12/25 13:04:58;;;;;;;26.98;16.33;;;16.80;64.00;;;;;;5096401;28;20023;-59
2021/12/25 13:07:27;;;;;;;18.90;11.98;;;16.80;64.00;;;;;;5096834;28;20032;-60
2021/12/25 13:13:12;;;;;;;20.52;13.20;;;16.80;63.80;;;;;;5096724;28;20064;-60
2021/12/25 13:15:40;;;;;;;23.48;15.07;;;16.90;63.40;;;;;;5096284;28;20566;-61
2021/12/25 13:18:07;;;;;;;21.75;13.45;;;16.90;63.30;;;;;;5096405;28;20093;-61
2021/12/25 13:20:33;;;;;;;19.10;12.02;;;16.90;63.00;;;;;;5096596;28;20020;-61
2021/12/25 13:23:00;;;;;;;11.98;7.38;;;17.00;62.90;;;;;;5096172;28;20023;-60
2021/12/25 13:25:26;;;;;;;17.10;10.70;;;17.00;62.50;;;;;;5096415;28;20027;-60
2021/12/25 13:28:01;;;;;;;15.63;10.35;;;16.90;62.80;;;;;;5096083;28;20385;-61
2021/12/25 13:30:28;;;;;;;19.42;11.63;;;16.90;63.30;;;;;;5096059;28;20373;-60
2021/12/25 13:32:54;;;;;;;20.92;13.48;;;16.90;62.20;;;;;;5095995;28;20351;-60
2021/12/25 13:35:24;;;;;;;30.45;18.30;;;16.90;62.30;;;;;;5095894;28;20054;-61
2021/12/25 13:38:00;;;;;;;21.73;11.60;;;16.90;62.30;;;;;;5095907;28;20048;-59
2021/12/25 13:40:27;;;;;;;19.45;10.82;;;16.70;61.80;;;;;;5095900;28;20044;-60
2021/12/25 13:42:53;;;;;;;18.20;11.82;;;16.80;62.30;;;;;;5095479;28;20024;-60
2021/12/25 13:45:20;;;;;;;32.45;18.55;;;16.90;62.30;;;;;;5095799;28;20040;-59
2021/12/25 13:47:46;;;;;;;49.58;28.05;;;17.00;62.30;;;;;;5095814;28;20028;-61
2021/12/25 13:50:12;;;;;;;19.55;12.60;;;16.90;62.60;;;;;;5095775;28;20016;-61
2021/12/25 13:52:45;;;;;;;12.25;7.40;;;16.80;61.50;;;;;;5095603;28;20019;-60
2021/12/25 13:55:21;;;;;;;14.95;8.52;;;16.90;61.20;;;;;;5095414;28;20123;-59
2021/12/25 13:57:59;;;;;;;17.85;10.95;;;17.00;61.10;;;;;;5095468;28;20024;-60